sensor_id;sensor_type;location;lat;lon;timestamp;pressure;altitude;pressure_sealevel;temperature;humidity
75409;BME280;63979;55.644;37.734;2022-12-29T00:01:14;100009.59;;;0.85;76.93
75409;BME280;63979;55.644;37.734;2022-12-29T00:06:16;100024.84;;;1.05;76.39
75409;BME280;63979;55.644;37.734;2022-12-29T00:11:19;100009.94;;;1.04;74.78
75409;BME280;63979;55.644;37.734;2022-12-29T00:16:21;100016.38;;;0.93;73.46
75409;BME280;63979;55.644;37.734;2022-12-29T00:21:23;100025.44;;;0.82;73.10
75409;BME280;63979;55.644;37.734;2022-12-29T00:26:43;100028.72;;;0.56;71.88
75409;BME280;63979;55.644;37.734;2022-12-29T00:32:06;100021.13;;;0.44;72.47
75409;BME280;63979;55.644;37.734;2022-12-29T00:37:25;99988.59;;;0.14;72.02
75409;BME280;63979;55.644;37.734;2022-12-29T00:42:46;100040.66;;;0.32;71.94
75409;BME280;63979;55.644;37.734;2022-12-29T00:48:06;100041.09;;;0.51;72.01
75409;BME280;63979;55.644;37.734;2022-12-29T00:53:07;100042.75;;;0.55;70.82
75409;BME280;63979;55.644;37.734;2022-12-29T00:58:09;100041.09;;;0.51;70.25
75409;BME280;63979;55.644;37.734;2022-12-29T01:03:10;100038.66;;;0.43;70.58
75409;BME280;63979;55.644;37.734;2022-12-29T01:08:11;100044.72;;;0.45;70.75
75409;BME280;63979;55.644;37.734;2022-12-29T01:13:12;100056.72;;;0.55;70.08
75409;BME280;63979;55.644;37.734;2022-12-29T01:18:13;100050.34;;;0.66;69.86
75409;BME280;63979;55.644;37.734;2022-12-29T01:23:15;100056.53;;;0.63;69.79
75409;BME280;63979;55.644;37.734;2022-12-29T01:28:16;100055.78;;;0.58;70.30
75409;BME280;63979;55.644;37.734;2022-12-29T01:33:17;100061.03;;;0.21;70.24
75409;BME280;63979;55.644;37.734;2022-12-29T01:38:18;100077.22;;;0.03;71.40
75409;BME280;63979;55.644;37.734;2022-12-29T01:43:19;100029.19;;;-0.43;71.78
75409;BME280;63979;55.644;37.734;2022-12-29T01:48:21;100082.81;;;-0.14;71.58
75409;BME280;63979;55.644;37.734;2022-12-29T01:53:26;100078.91;;;0.05;71.51
75409;BME280;63979;55.644;37.734;2022-12-29T01:58:32;100074.19;;;0.19;71.18
75409;BME280;63979;55.644;37.734;2022-12-29T02:03:35;100070.75;;;0.17;70.52
75409;BME280;63979;55.644;37.734;2022-12-29T02:08:37;100059.44;;;0.15;70.30
75409;BME280;63979;55.644;37.734;2022-12-29T02:13:39;100044.72;;;0.08;70.25
75409;BME280;63979;55.644;37.734;2022-12-29T02:18:48;100079.41;;;0.21;70.66
75409;BME280;63979;55.644;37.734;2022-12-29T02:29:21;100079.63;;;0.12;70.74
75409;BME280;63979;55.644;37.734;2022-12-29T02:34:45;100091.81;;;0.14;70.14
75409;BME280;63979;55.644;37.734;2022-12-29T02:39:56;100089.81;;;0.25;70.09
75409;BME280;63979;55.644;37.734;2022-12-29T02:45:05;100094.34;;;0.19;70.21
75409;BME280;63979;55.644;37.734;2022-12-29T02:50:36;100088.81;;;-0.09;70.29
75409;BME280;63979;55.644;37.734;2022-12-29T02:55:39;100098.16;;;-0.39;71.46
75409;BME280;63979;55.644;37.734;2022-12-29T03:06:35;100091.78;;;-0.71;72.02
75409;BME280;63979;55.644;37.734;2022-12-29T03:11:50;100098.13;;;-0.84;73.05
75409;BME280;63979;55.644;37.734;2022-12-29T03:17:27;100098.34;;;-0.95;73.21
75409;BME280;63979;55.644;37.734;2022-12-29T03:22:31;100112.91;;;-0.80;73.51
75409;BME280;63979;55.644;37.734;2022-12-29T03:27:46;100130.84;;;-0.57;73.19
75409;BME280;63979;55.644;37.734;2022-12-29T03:32:52;100118.56;;;-0.53;72.60
75409;BME280;63979;55.644;37.734;2022-12-29T03:38:08;100135.75;;;-0.39;71.78
75409;BME280;63979;55.644;37.734;2022-12-29T03:43:15;100133.16;;;-0.40;72.02
75409;BME280;63979;55.644;37.734;2022-12-29T03:48:17;100140.88;;;-0.33;71.53
75409;BME280;63979;55.644;37.734;2022-12-29T03:53:18;100109.09;;;-0.60;71.63
75409;BME280;63979;55.644;37.734;2022-12-29T03:58:19;100153.13;;;-0.33;71.70
75409;BME280;63979;55.644;37.734;2022-12-29T04:03:20;100158.41;;;-0.35;72.01
75409;BME280;63979;55.644;37.734;2022-12-29T04:08:21;100134.25;;;-0.52;72.24
75409;BME280;63979;55.644;37.734;2022-12-29T04:13:23;100158.44;;;-0.38;71.47
75409;BME280;63979;55.644;37.734;2022-12-29T04:18:24;100159.28;;;-0.36;71.86
75409;BME280;63979;55.644;37.734;2022-12-29T04:23:26;100162.09;;;-0.46;71.96
75409;BME280;63979;55.644;37.734;2022-12-29T04:28:27;100169.13;;;-0.48;72.00
75409;BME280;63979;55.644;37.734;2022-12-29T04:33:29;100165.75;;;-0.53;72.14
75409;BME280;63979;55.644;37.734;2022-12-29T04:38:30;100163.91;;;-0.50;72.26
75409;BME280;63979;55.644;37.734;2022-12-29T04:43:31;100162.44;;;-0.63;72.77
75409;BME280;63979;55.644;37.734;2022-12-29T04:48:32;100172.25;;;-0.77;72.55
75409;BME280;63979;55.644;37.734;2022-12-29T04:53:33;100167.75;;;-0.68;71.83
75409;BME280;63979;55.644;37.734;2022-12-29T04:58:35;100176.81;;;-0.88;72.38
75409;BME280;63979;55.644;37.734;2022-12-29T05:03:37;100183.75;;;-0.84;72.59
75409;BME280;63979;55.644;37.734;2022-12-29T05:08:39;100195.31;;;-0.98;72.54
75409;BME280;63979;55.644;37.734;2022-12-29T05:13:40;100204.97;;;-1.00;72.89
75409;BME280;63979;55.644;37.734;2022-12-29T05:18:41;100202.25;;;-0.95;73.35
75409;BME280;63979;55.644;37.734;2022-12-29T05:23:45;100197.78;;;-0.88;72.45
75409;BME280;63979;55.644;37.734;2022-12-29T05:28:48;100200.34;;;-0.84;72.43
75409;BME280;63979;55.644;37.734;2022-12-29T05:33:49;100210.91;;;-0.90;72.77
75409;BME280;63979;55.644;37.734;2022-12-29T05:38:50;100216.38;;;-1.04;71.63
75409;BME280;63979;55.644;37.734;2022-12-29T05:43:51;100227.81;;;-1.11;71.68
75409;BME280;63979;55.644;37.734;2022-12-29T05:48:52;100236.69;;;-1.21;72.77
75409;BME280;63979;55.644;37.734;2022-12-29T05:53:53;100227.41;;;-1.43;72.86
75409;BME280;63979;55.644;37.734;2022-12-29T05:58:54;100225.44;;;-1.28;73.03
75409;BME280;63979;55.644;37.734;2022-12-29T06:03:55;100188.16;;;-1.45;72.19
75409;BME280;63979;55.644;37.734;2022-12-29T06:08:56;100228.03;;;-1.24;72.01
75409;BME280;63979;55.644;37.734;2022-12-29T06:13:57;100233.25;;;-1.24;71.79
75409;BME280;63979;55.644;37.734;2022-12-29T06:18:58;100220.94;;;-1.18;72.14
75409;BME280;63979;55.644;37.734;2022-12-29T06:23:59;100237.41;;;-1.11;72.13
75409;BME280;63979;55.644;37.734;2022-12-29T06:29:00;100231.31;;;-1.12;71.54
75409;BME280;63979;55.644;37.734;2022-12-29T06:34:02;100243.47;;;-1.06;71.61
75409;BME280;63979;55.644;37.734;2022-12-29T06:39:03;100241.41;;;-0.86;70.72
75409;BME280;63979;55.644;37.734;2022-12-29T06:44:04;100242.34;;;-0.90;70.79
75409;BME280;63979;55.644;37.734;2022-12-29T06:49:06;100242.38;;;-0.91;71.71
75409;BME280;63979;55.644;37.734;2022-12-29T06:54:07;100247.38;;;-0.76;71.54
75409;BME280;63979;55.644;37.734;2022-12-29T06:59:09;100249.88;;;-0.67;71.39
75409;BME280;63979;55.644;37.734;2022-12-29T07:04:10;100248.13;;;-0.68;69.96
75409;BME280;63979;55.644;37.734;2022-12-29T07:09:11;100246.88;;;-0.46;69.56
75409;BME280;63979;55.644;37.734;2022-12-29T07:14:13;100240.69;;;-0.42;69.18
75409;BME280;63979;55.644;37.734;2022-12-29T07:19:14;100249.88;;;-0.67;69.68
75409;BME280;63979;55.644;37.734;2022-12-29T07:24:15;100243.78;;;-0.69;69.41
75409;BME280;63979;55.644;37.734;2022-12-29T07:29:16;100254.28;;;-0.69;69.77
75409;BME280;63979;55.644;37.734;2022-12-29T07:34:18;100249.66;;;-0.55;69.33
75409;BME280;63979;55.644;37.734;2022-12-29T07:39:19;100246.13;;;-0.05;68.19
75409;BME280;63979;55.644;37.734;2022-12-29T07:44:20;100250.88;;;0.65;65.85
75409;BME280;63979;55.644;37.734;2022-12-29T07:49:21;100251.72;;;2.10;61.15
75409;BME280;63979;55.644;37.734;2022-12-29T07:54:23;100249.91;;;5.03;51.03
75409;BME280;63979;55.644;37.734;2022-12-29T07:59:24;100266.94;;;3.20;55.12
75409;BME280;63979;55.644;37.734;2022-12-29T08:04:25;100266.19;;;2.27;58.74
75409;BME280;63979;55.644;37.734;2022-12-29T08:09:26;100268.66;;;2.00;59.11
75409;BME280;63979;55.644;37.734;2022-12-29T08:14:28;100271.66;;;1.52;60.91
75409;BME280;63979;55.644;37.734;2022-12-29T08:19:29;100272.84;;;1.75;59.95
75409;BME280;63979;55.644;37.734;2022-12-29T08:24:30;100289.00;;;1.60;60.87
75409;BME280;63979;55.644;37.734;2022-12-29T08:29:32;100283.38;;;1.01;62.62
75409;BME280;63979;55.644;37.734;2022-12-29T08:34:33;100284.22;;;0.61;63.80
75409;BME280;63979;55.644;37.734;2022-12-29T08:39:34;100280.38;;;0.34;64.34
75409;BME280;63979;55.644;37.734;2022-12-29T08:44:35;100281.66;;;0.58;65.30
75409;BME280;63979;55.644;37.734;2022-12-29T08:49:36;100283.28;;;0.20;66.23
75409;BME280;63979;55.644;37.734;2022-12-29T08:54:37;100261.69;;;0.51;64.61
75409;BME280;63979;55.644;37.734;2022-12-29T08:59:38;100284.66;;;0.40;65.63
75409;BME280;63979;55.644;37.734;2022-12-29T09:04:39;100277.44;;;0.91;64.61
75409;BME280;63979;55.644;37.734;2022-12-29T09:09:40;100283.00;;;1.17;62.72
75409;BME280;63979;55.644;37.734;2022-12-29T09:14:42;100283.50;;;1.33;61.75
75409;BME280;63979;55.644;37.734;2022-12-29T09:19:45;100284.63;;;1.94;60.52
75409;BME280;63979;55.644;37.734;2022-12-29T09:24:47;100281.78;;;2.65;58.33
75409;BME280;63979;55.644;37.734;2022-12-29T09:29:48;100282.19;;;3.38;56.85
75409;BME280;63979;55.644;37.734;2022-12-29T09:34:49;100262.22;;;4.34;53.86
75409;BME280;63979;55.644;37.734;2022-12-29T09:39:50;100258.25;;;7.00;48.33
75409;BME280;63979;55.644;37.734;2022-12-29T09:50:26;100257.50;;;14.30;31.21
75409;BME280;63979;55.644;37.734;2022-12-29T09:55:38;100268.53;;;11.08;35.46
75409;BME280;63979;55.644;37.734;2022-12-29T10:00:52;100284.06;;;7.34;42.46
75409;BME280;63979;55.644;37.734;2022-12-29T10:06:06;100287.50;;;4.89;48.77
75409;BME280;63979;55.644;37.734;2022-12-29T10:11:34;100282.22;;;3.37;53.61
75409;BME280;63979;55.644;37.734;2022-12-29T10:27:31;100290.16;;;1.11;62.72
75409;BME280;63979;55.644;37.734;2022-12-29T10:32:50;100287.03;;;0.93;63.08
75409;BME280;63979;55.644;37.734;2022-12-29T10:43:30;100281.00;;;0.88;63.61
75409;BME280;63979;55.644;37.734;2022-12-29T10:48:33;100282.97;;;1.19;63.75
75409;BME280;63979;55.644;37.734;2022-12-29T10:53:47;100291.13;;;1.07;63.64
75409;BME280;63979;55.644;37.734;2022-12-29T10:58:50;100288.44;;;0.70;65.50
75409;BME280;63979;55.644;37.734;2022-12-29T11:04:02;100282.69;;;0.51;66.70
75409;BME280;63979;55.644;37.734;2022-12-29T11:09:27;100279.66;;;0.26;67.60
75409;BME280;63979;55.644;37.734;2022-12-29T11:14:30;100272.88;;;0.16;68.11
75409;BME280;63979;55.644;37.734;2022-12-29T11:19:33;100223.31;;;0.01;67.90
75409;BME280;63979;55.644;37.734;2022-12-29T11:24:43;100254.75;;;0.47;66.83
75409;BME280;63979;55.644;37.734;2022-12-29T11:29:45;100274.53;;;0.63;66.14
75409;BME280;63979;55.644;37.734;2022-12-29T11:34:46;100269.16;;;0.71;65.94
75409;BME280;63979;55.644;37.734;2022-12-29T11:39:57;100259.16;;;0.86;66.48
75409;BME280;63979;55.644;37.734;2022-12-29T11:45:25;100259.78;;;0.98;65.65
75409;BME280;63979;55.644;37.734;2022-12-29T11:50:30;100265.06;;;0.96;65.62
75409;BME280;63979;55.644;37.734;2022-12-29T11:55:35;100267.13;;;0.83;65.99
75409;BME280;63979;55.644;37.734;2022-12-29T12:00:37;100268.28;;;0.70;66.40
75409;BME280;63979;55.644;37.734;2022-12-29T12:05:54;100286.81;;;0.62;66.70
75409;BME280;63979;55.644;37.734;2022-12-29T12:16:17;100289.59;;;0.55;67.79
75409;BME280;63979;55.644;37.734;2022-12-29T12:21:56;100295.75;;;0.54;68.31
75409;BME280;63979;55.644;37.734;2022-12-29T12:27:07;100256.75;;;0.36;68.07
75409;BME280;63979;55.644;37.734;2022-12-29T12:49:20;100278.06;;;0.62;68.80
75409;BME280;63979;55.644;37.734;2022-12-29T12:54:46;100275.41;;;0.63;68.53
75409;BME280;63979;55.644;37.734;2022-12-29T12:59:56;100276.25;;;0.66;69.08
75409;BME280;63979;55.644;37.734;2022-12-29T13:05:04;100275.34;;;0.67;69.95
75409;BME280;63979;55.644;37.734;2022-12-29T13:10:22;100259.19;;;0.45;70.09
75409;BME280;63979;55.644;37.734;2022-12-29T13:26:41;100286.34;;;0.44;70.79
75409;BME280;63979;55.644;37.734;2022-12-29T13:37:34;100282.94;;;0.39;70.76
75409;BME280;63979;55.644;37.734;2022-12-29T13:42:37;100282.97;;;0.37;70.34
75409;BME280;63979;55.644;37.734;2022-12-29T13:47:46;100290.81;;;0.39;70.56
75409;BME280;63979;55.644;37.734;2022-12-29T14:08:34;100274.63;;;0.15;71.20
75409;BME280;63979;55.644;37.734;2022-12-29T14:13:38;100287.88;;;0.09;71.37
75409;BME280;63979;55.644;37.734;2022-12-29T14:18:42;100260.47;;;-0.22;72.25
75409;BME280;63979;55.644;37.734;2022-12-29T14:23:49;100303.94;;;-0.09;72.52
75409;BME280;63979;55.644;37.734;2022-12-29T14:28:50;100280.41;;;-0.14;72.33
75409;BME280;63979;55.644;37.734;2022-12-29T14:44:29;100290.69;;;0.00;71.52
75409;BME280;63979;55.644;37.734;2022-12-29T14:49:32;100292.56;;;-0.08;72.42
75409;BME280;63979;55.644;37.734;2022-12-29T14:54:46;100290.84;;;-0.11;72.33
75409;BME280;63979;55.644;37.734;2022-12-29T14:59:53;100289.03;;;-0.07;72.26
75409;BME280;63979;55.644;37.734;2022-12-29T15:04:59;100300.81;;;-0.29;73.05
75409;BME280;63979;55.644;37.734;2022-12-29T15:10:07;100290.38;;;-0.33;74.13
75409;BME280;63979;55.644;37.734;2022-12-29T15:15:22;100260.88;;;-0.47;74.97
75409;BME280;63979;55.644;37.734;2022-12-29T15:20:31;100256.44;;;-0.43;75.41
75409;BME280;63979;55.644;37.734;2022-12-29T15:25:32;100290.31;;;-0.29;75.30
75409;BME280;63979;55.644;37.734;2022-12-29T15:30:33;100294.56;;;-0.22;75.72
75409;BME280;63979;55.644;37.734;2022-12-29T15:35:36;100279.78;;;-0.26;75.39
75409;BME280;63979;55.644;37.734;2022-12-29T15:40:37;100285.81;;;-0.23;75.88
75409;BME280;63979;55.644;37.734;2022-12-29T15:45:38;100249.50;;;-0.46;75.56
75409;BME280;63979;55.644;37.734;2022-12-29T15:50:40;100281.59;;;-0.30;75.92
75409;BME280;63979;55.644;37.734;2022-12-29T15:55:43;100286.81;;;-0.28;75.99
75409;BME280;63979;55.644;37.734;2022-12-29T16:01:16;100270.13;;;-0.24;75.33
75409;BME280;63979;55.644;37.734;2022-12-29T16:06:36;100262.22;;;-0.23;75.28
75409;BME280;63979;55.644;37.734;2022-12-29T16:11:39;100262.03;;;-0.12;74.93
75409;BME280;63979;55.644;37.734;2022-12-29T16:16:43;100248.91;;;-0.12;74.57
75409;BME280;63979;55.644;37.734;2022-12-29T16:21:46;100255.00;;;-0.12;74.65
75409;BME280;63979;55.644;37.734;2022-12-29T16:27:02;100208.31;;;-0.41;74.32
75409;BME280;63979;55.644;37.734;2022-12-29T16:37:33;100235.25;;;-0.29;74.92
75409;BME280;63979;55.644;37.734;2022-12-29T16:42:46;100239.63;;;-0.30;74.76
75409;BME280;63979;55.644;37.734;2022-12-29T16:53:28;100228.31;;;-0.34;75.48
75409;BME280;63979;55.644;37.734;2022-12-29T16:58:30;100235.28;;;-0.31;75.63
75409;BME280;63979;55.644;37.734;2022-12-29T17:04:18;100226.50;;;-0.30;75.73
75409;BME280;63979;55.644;37.734;2022-12-29T17:09:48;100229.78;;;-0.19;76.00
75409;BME280;63979;55.644;37.734;2022-12-29T17:15:10;100242.97;;;-0.22;75.34
75409;BME280;63979;55.644;37.734;2022-12-29T17:20:19;100231.69;;;-0.27;75.30
75409;BME280;63979;55.644;37.734;2022-12-29T17:25:27;100231.72;;;-0.28;75.42
75409;BME280;63979;55.644;37.734;2022-12-29T17:30:31;100223.22;;;-0.43;75.88
75409;BME280;63979;55.644;37.734;2022-12-29T17:35:34;100227.63;;;-0.45;76.16
75409;BME280;63979;55.644;37.734;2022-12-29T17:40:35;100181.75;;;-0.70;76.03
75409;BME280;63979;55.644;37.734;2022-12-29T17:45:37;100211.16;;;-0.53;76.42
75409;BME280;63979;55.644;37.734;2022-12-29T17:50:40;100215.44;;;-0.47;76.21
75409;BME280;63979;55.644;37.734;2022-12-29T17:55:42;100224.22;;;-0.50;76.39
75409;BME280;63979;55.644;37.734;2022-12-29T18:00:43;100203.56;;;-0.67;76.85
75409;BME280;63979;55.644;37.734;2022-12-29T18:05:45;100202.66;;;-0.66;77.60
75409;BME280;63979;55.644;37.734;2022-12-29T18:10:46;100199.22;;;-0.68;77.67
75409;BME280;63979;55.644;37.734;2022-12-29T18:15:48;100192.34;;;-0.76;77.19
75409;BME280;63979;55.644;37.734;2022-12-29T18:20:51;100204.38;;;-0.63;77.83
75409;BME280;63979;55.644;37.734;2022-12-29T18:25:57;100199.19;;;-0.66;77.53
75409;BME280;63979;55.644;37.734;2022-12-29T18:31:00;100200.84;;;-0.62;77.36
75409;BME280;63979;55.644;37.734;2022-12-29T18:36:03;100195.59;;;-0.62;77.15
75409;BME280;63979;55.644;37.734;2022-12-29T18:41:05;100203.38;;;-0.56;77.11
75409;BME280;63979;55.644;37.734;2022-12-29T18:46:06;100187.66;;;-0.57;77.28
75409;BME280;63979;55.644;37.734;2022-12-29T18:51:14;100188.59;;;-0.60;77.26
75409;BME280;63979;55.644;37.734;2022-12-29T18:56:16;100188.47;;;-0.54;77.39
75409;BME280;63979;55.644;37.734;2022-12-29T19:01:20;100184.22;;;-0.61;77.90
75409;BME280;63979;55.644;37.734;2022-12-29T19:06:23;100182.38;;;-0.54;77.84
75409;BME280;63979;55.644;37.734;2022-12-29T19:11:24;100179.69;;;-0.51;77.39
75409;BME280;63979;55.644;37.734;2022-12-29T19:16:25;100186.53;;;-0.44;77.17
75409;BME280;63979;55.644;37.734;2022-12-29T19:21:27;100183.28;;;-0.57;77.72
75409;BME280;63979;55.644;37.734;2022-12-29T19:26:30;100171.81;;;-0.51;77.55
75409;BME280;63979;55.644;37.734;2022-12-29T19:31:32;100185.75;;;-0.49;77.47
75409;BME280;63979;55.644;37.734;2022-12-29T19:36:33;100180.53;;;-0.49;77.76
75409;BME280;63979;55.644;37.734;2022-12-29T19:41:35;100175.38;;;-0.55;78.10
75409;BME280;63979;55.644;37.734;2022-12-29T19:46:36;100180.66;;;-0.57;77.98
75409;BME280;63979;55.644;37.734;2022-12-29T19:51:38;100166.78;;;-0.62;78.61
75409;BME280;63979;55.644;37.734;2022-12-29T19:56:39;100172.78;;;-0.57;78.29
75409;BME280;63979;55.644;37.734;2022-12-29T20:01:42;100175.25;;;-0.48;78.26
75409;BME280;63979;55.644;37.734;2022-12-29T20:06:43;100167.38;;;-0.48;78.33
75409;BME280;63979;55.644;37.734;2022-12-29T20:11:44;100149.41;;;-0.68;79.11
75409;BME280;63979;55.644;37.734;2022-12-29T20:16:47;100162.16;;;-0.49;78.92
75409;BME280;63979;55.644;37.734;2022-12-29T20:21:47;100122.34;;;-0.68;78.89
75409;BME280;63979;55.644;37.734;2022-12-29T20:26:49;100148.03;;;-0.42;78.46
75409;BME280;63979;55.644;37.734;2022-12-29T20:31:51;100149.66;;;-0.35;78.79
75409;BME280;63979;55.644;37.734;2022-12-29T20:36:52;100148.84;;;-0.39;78.40
75409;BME280;63979;55.644;37.734;2022-12-29T20:41:53;100155.03;;;-0.43;78.45
75409;BME280;63979;55.644;37.734;2022-12-29T20:46:54;100158.47;;;-0.39;78.22
75409;BME280;63979;55.644;37.734;2022-12-29T20:51:55;100154.97;;;-0.38;78.52
75409;BME280;63979;55.644;37.734;2022-12-29T20:56:56;100143.19;;;-0.62;79.01
75409;BME280;63979;55.644;37.734;2022-12-29T21:01:57;100139.63;;;-0.58;79.39
75409;BME280;63979;55.644;37.734;2022-12-29T21:06:59;100124.94;;;-0.68;79.81
75409;BME280;63979;55.644;37.734;2022-12-29T21:12:00;100121.47;;;-0.70;80.16
75409;BME280;63979;55.644;37.734;2022-12-29T21:17:02;100114.66;;;-0.80;80.16
75409;BME280;63979;55.644;37.734;2022-12-29T21:22:02;100117.13;;;-0.71;80.15
75409;BME280;63979;55.644;37.734;2022-12-29T21:27:04;100106.59;;;-0.70;80.33
75409;BME280;63979;55.644;37.734;2022-12-29T21:32:05;100101.31;;;-0.65;80.09
75409;BME280;63979;55.644;37.734;2022-12-29T21:37:06;100076.69;;;-0.58;79.58
75409;BME280;63979;55.644;37.734;2022-12-29T21:42:07;100089.56;;;-0.46;79.14
75409;BME280;63979;55.644;37.734;2022-12-29T21:47:09;100099.22;;;-0.48;78.90
75409;BME280;63979;55.644;37.734;2022-12-29T21:52:10;100091.31;;;-0.46;78.66
75409;BME280;63979;55.644;37.734;2022-12-29T21:57:13;100088.69;;;-0.46;78.75
75409;BME280;63979;55.644;37.734;2022-12-29T22:02:33;100070.41;;;-0.49;78.40
75409;BME280;63979;55.644;37.734;2022-12-29T22:07:53;100038.91;;;-0.92;79.50
75409;BME280;63979;55.644;37.734;2022-12-29T22:13:12;100085.56;;;-0.64;79.18
75409;BME280;63979;55.644;37.734;2022-12-29T22:18:13;100045.59;;;-0.76;79.52
75409;BME280;63979;55.644;37.734;2022-12-29T22:23:14;100078.38;;;-0.54;79.14
75409;BME280;63979;55.644;37.734;2022-12-29T22:28:16;100085.53;;;-0.62;79.26
75409;BME280;63979;55.644;37.734;2022-12-29T22:33:16;100083.78;;;-0.63;79.45
75409;BME280;63979;55.644;37.734;2022-12-29T22:38:17;100076.91;;;-0.70;79.41
75409;BME280;63979;55.644;37.734;2022-12-29T22:43:18;100041.44;;;-0.88;79.90
75409;BME280;63979;55.644;37.734;2022-12-29T22:48:19;100068.28;;;-0.75;79.78
75409;BME280;63979;55.644;37.734;2022-12-29T22:53:20;100075.31;;;-0.77;80.04
75409;BME280;63979;55.644;37.734;2022-12-29T22:58:21;100075.31;;;-0.77;80.09
75409;BME280;63979;55.644;37.734;2022-12-29T23:03:22;100068.22;;;-0.72;80.12
75409;BME280;63979;55.644;37.734;2022-12-29T23:08:24;100057.59;;;-0.63;79.86
75409;BME280;63979;55.644;37.734;2022-12-29T23:13:25;100056.69;;;-0.62;80.34
75409;BME280;63979;55.644;37.734;2022-12-29T23:18:26;100065.38;;;-0.60;79.63
75409;BME280;63979;55.644;37.734;2022-12-29T23:23:27;100050.59;;;-0.63;79.51
75409;BME280;63979;55.644;37.734;2022-12-29T23:28:47;100057.47;;;-0.57;79.54
75409;BME280;63979;55.644;37.734;2022-12-29T23:33:48;100060.72;;;-0.46;79.21
75409;BME280;63979;55.644;37.734;2022-12-29T23:38:49;100075.63;;;-0.48;79.11
75409;BME280;63979;55.644;37.734;2022-12-29T23:43:50;100076.44;;;-0.46;79.62
75409;BME280;63979;55.644;37.734;2022-12-29T23:48:51;100079.13;;;-0.49;78.84
75409;BME280;63979;55.644;37.734;2022-12-29T23:53:52;100055.84;;;-0.64;79.70
75409;BME280;63979;55.644;37.734;2022-12-29T23:58:53;100050.53;;;-0.59;79.55
